createdAt,value
2019-05-06T00:00:04.726Z,14.37
2019-05-06T00:05:30.546Z,12.60
2019-05-06T00:10:55.089Z,15.83
2019-05-06T00:16:19.935Z,16.63
2019-05-06T00:21:44.349Z,12.47
2019-05-06T00:27:15.278Z,13.10
2019-05-06T00:32:39.448Z,15.33
2019-05-06T00:38:04.483Z,15.03
2019-05-06T00:43:29.846Z,14.20
2019-05-06T00:48:55.065Z,15.90
2019-05-06T00:54:21.572Z,16.10
2019-05-06T00:59:45.409Z,16.70
2019-05-06T01:05:10.511Z,17.03
2019-05-06T01:10:35.358Z,21.87
2019-05-06T01:15:59.646Z,17.53
2019-05-06T01:21:24.455Z,15.90
2019-05-06T01:26:48.936Z,15.33
2019-05-06T01:32:13.996Z,16.37
2019-05-06T01:37:39.923Z,21.83
2019-05-06T01:43:08.321Z,15.40
2019-05-06T01:48:47.805Z,16.40
2019-05-06T01:54:14.213Z,20.60
2019-05-06T01:59:37.513Z,15.93
2019-05-06T02:05:04.498Z,16.70
2019-05-06T02:10:28.632Z,22.47
2019-05-06T02:15:54.751Z,15.07
2019-05-06T02:21:38.365Z,27.57
2019-05-06T02:27:04.361Z,16.93
2019-05-06T02:32:36.089Z,15.57
2019-05-06T02:38:00.074Z,21.87
2019-05-06T02:43:23.770Z,21.80
2019-05-06T02:49:07.392Z,14.97
2019-05-06T02:54:34.531Z,23.57
2019-05-06T02:59:57.099Z,14.67
2019-05-06T03:05:23.706Z,17.97
2019-05-06T03:10:47.191Z,18.50
2019-05-06T03:16:14.134Z,30.97
2019-05-06T03:22:03.149Z,20.57
2019-05-06T03:27:26.510Z,18.80
2019-05-06T03:33:27.404Z,19.80
2019-05-06T03:38:16.487Z,21.47
2019-05-06T03:43:43.353Z,21.37
2019-05-06T03:49:06.813Z,23.03
2019-05-06T03:54:34.290Z,25.93
2019-05-06T04:00:00.113Z,21.33
2019-05-06T04:05:24.619Z,18.63
2019-05-06T04:10:53.800Z,19.27
2019-05-06T04:16:23.154Z,25.23
2019-05-06T04:21:58.599Z,25.53
2019-05-06T04:27:33.518Z,20.87
2019-05-06T04:32:58.669Z,23.20
2019-05-06T04:38:23.984Z,25.13
2019-05-06T04:43:48.390Z,25.03
2019-05-06T04:49:15.016Z,19.57
2019-05-06T04:54:39.660Z,22.77
2019-05-06T05:00:04.578Z,22.30
2019-05-06T05:05:32.846Z,19.10
2019-05-06T05:11:03.405Z,24.90
2019-05-06T05:16:33.181Z,18.57
2019-05-06T05:22:06.011Z,17.97
2019-05-06T05:27:32.918Z,22.60
2019-05-06T05:32:57.947Z,20.53
2019-05-06T05:38:22.907Z,17.57
2019-05-06T05:44:02.294Z,16.80
2019-05-06T05:49:45.974Z,18.57
2019-05-06T05:55:12.059Z,20.07
2019-05-06T06:00:36.896Z,23.87
2019-05-06T06:06:03.031Z,25.00
2019-05-06T06:11:32.868Z,16.43
2019-05-06T06:17:15.316Z,14.90
2019-05-06T06:22:39.294Z,17.57
2019-05-06T06:28:03.453Z,14.13
2019-05-06T06:33:28.315Z,18.57
2019-05-06T06:39:07.629Z,12.20
2019-05-06T06:44:33.760Z,12.43
2019-05-06T06:49:57.785Z,20.47
2019-05-06T06:55:22.848Z,15.30
2019-05-06T07:00:57.329Z,11.30
2019-05-06T07:06:39.307Z,13.57
2019-05-06T07:12:03.734Z,19.60
2019-05-06T07:17:28.847Z,17.37
2019-05-06T07:22:53.508Z,12.17
2019-05-06T07:28:17.172Z,16.00
2019-05-06T07:33:42.961Z,16.17
2019-05-06T07:39:08.007Z,14.07
2019-05-06T07:45:06.129Z,15.17
2019-05-06T07:50:26.284Z,21.10
2019-05-06T07:55:52.481Z,13.80
2019-05-06T08:01:16.644Z,11.33
2019-05-06T08:06:42.750Z,13.90
2019-05-06T08:12:06.641Z,13.50
2019-05-06T08:17:35.259Z,15.27
2019-05-06T08:23:07.185Z,14.70
2019-05-06T08:28:40.477Z,10.40
2019-05-06T08:33:57.820Z,12.13
2019-05-06T08:39:22.060Z,9.43
2019-05-06T08:44:47.627Z,12.10
2019-05-06T08:50:23.366Z,12.30
2019-05-06T08:55:47.795Z,7.67
2019-05-06T09:01:13.662Z,15.63
2019-05-06T09:06:37.673Z,7.83
2019-05-06T09:12:02.920Z,14.70
2019-05-06T09:17:27.538Z,14.30
2019-05-06T09:22:52.236Z,10.37
2019-05-06T09:28:26.566Z,10.33
2019-05-06T09:34:05.002Z,8.00
2019-05-06T09:39:29.107Z,7.70
2019-05-06T09:44:54.429Z,8.73
2019-05-06T09:50:46.730Z,12.20
2019-05-06T09:56:22.969Z,12.87
2019-05-06T10:01:46.224Z,7.03
2019-05-06T10:07:11.920Z,10.87
2019-05-06T10:12:37.172Z,7.33
2019-05-06T10:18:08.754Z,10.03
2019-05-06T10:23:32.867Z,9.20
2019-05-06T10:29:15.088Z,8.67
2019-05-06T10:34:39.086Z,9.57
2019-05-06T10:40:15.280Z,7.77
2019-05-06T10:45:39.703Z,8.37
2019-05-06T10:51:17.221Z,13.33
2019-05-06T10:57:06.132Z,10.13
2019-05-06T11:02:47.995Z,8.50
2019-05-06T11:08:11.471Z,8.33
2019-05-06T11:13:36.400Z,13.10
2019-05-06T11:19:02.186Z,7.70
2019-05-06T11:24:26.436Z,9.13
2019-05-06T11:29:53.070Z,11.53
2019-05-06T11:35:25.452Z,8.77
2019-05-06T11:40:49.724Z,9.90
2019-05-06T11:46:13.424Z,8.33
2019-05-06T11:51:38.050Z,9.15
2019-05-06T11:57:04.199Z,10.55
2019-05-06T12:02:28.829Z,9.83
2019-05-06T12:08:01.884Z,8.10
2019-05-06T12:13:18.452Z,9.85
2019-05-06T12:18:43.685Z,7.08
2019-05-06T12:24:07.533Z,9.20
2019-05-06T12:29:32.392Z,7.87
2019-05-06T12:34:57.830Z,8.58
2019-05-06T12:40:22.363Z,10.38
2019-05-06T12:45:47.489Z,10.05
2019-05-06T12:51:12.099Z,9.80
2019-05-06T12:56:36.843Z,9.30
2019-05-06T13:02:02.723Z,8.13
2019-05-06T13:07:37.472Z,8.40
2019-05-06T13:13:05.528Z,10.73
2019-05-06T13:18:32.150Z,13.67
2019-05-06T13:24:02.388Z,11.63
2019-05-06T13:29:28.942Z,6.33
2019-05-06T13:34:52.755Z,13.60
2019-05-06T13:40:17.779Z,12.28
2019-05-06T13:45:43.256Z,12.30
2019-05-06T13:51:12.422Z,7.75
2019-05-06T13:56:36.137Z,11.78
2019-05-06T14:02:08.652Z,12.65
2019-05-06T14:07:34.694Z,8.55
2019-05-06T14:12:59.196Z,9.13
2019-05-06T14:18:23.712Z,10.32
2019-05-06T14:23:47.386Z,9.65
2019-05-06T14:29:23.553Z,8.15
2019-05-06T14:34:47.876Z,8.23
2019-05-06T14:40:16.661Z,6.60
2019-05-06T14:45:42.311Z,7.28
2019-05-06T14:51:06.233Z,8.50
2019-05-06T14:56:42.975Z,9.10
2019-05-06T15:02:07.769Z,8.48
2019-05-06T15:07:33.031Z,7.28
2019-05-06T15:12:57.788Z,9.28
2019-05-06T15:18:22.461Z,8.63
2019-05-06T15:23:47.064Z,11.97
2019-05-06T15:29:12.648Z,9.30
2019-05-06T15:35:08.043Z,10.43
2019-05-06T15:40:36.393Z,11.03
2019-05-06T15:45:58.537Z,8.20
2019-05-06T15:51:34.442Z,13.53
2019-05-06T15:56:58.510Z,6.90
2019-05-06T16:02:23.347Z,10.23
2019-05-06T16:07:48.207Z,8.80
2019-05-06T16:13:13.027Z,13.23
2019-05-06T16:18:36.721Z,12.30
2019-05-06T16:24:09.135Z,13.60
2019-05-06T16:29:35.628Z,13.07
2019-05-06T16:34:59.723Z,18.83
2019-05-06T16:40:23.964Z,9.83
2019-05-06T16:45:48.474Z,8.63
2019-05-06T16:51:12.720Z,11.23
2019-05-06T16:56:44.703Z,17.07
2019-05-06T17:02:14.386Z,10.13
2019-05-06T17:07:39.038Z,21.13
2019-05-06T17:13:03.151Z,8.73
2019-05-06T17:18:27.798Z,9.10
2019-05-06T17:23:52.560Z,10.80
2019-05-06T17:29:24.151Z,8.23
2019-05-06T17:34:52.722Z,11.80
2019-05-06T17:40:18.176Z,10.73
2019-05-06T17:46:01.791Z,9.23
2019-05-06T17:51:42.638Z,10.93
2019-05-06T17:57:07.561Z,13.03
2019-05-06T18:02:32.630Z,13.43
2019-05-06T18:07:57.267Z,11.13
2019-05-06T18:13:21.972Z,10.73
2019-05-06T18:18:46.631Z,11.67
2019-05-06T18:24:12.934Z,15.47
2019-05-06T18:29:37.323Z,11.73
2019-05-06T18:35:02.623Z,9.53
2019-05-06T18:40:27.123Z,9.63
2019-05-06T18:45:53.015Z,11.17
2019-05-06T18:51:16.743Z,8.07
2019-05-06T18:56:42.754Z,8.70
2019-05-06T19:02:06.406Z,7.97
2019-05-06T19:07:33.275Z,7.50
2019-05-06T19:12:57.036Z,7.87
2019-05-06T19:18:22.468Z,5.43
2019-05-06T19:23:47.417Z,7.13
2019-05-06T19:29:12.259Z,5.50
2019-05-06T19:34:36.716Z,8.93
2019-05-06T19:40:02.698Z,7.50
2019-05-06T19:45:26.061Z,5.23
2019-05-06T19:50:52.224Z,4.43
2019-05-06T19:56:16.716Z,6.50
2019-05-06T20:01:42.781Z,9.30
2019-05-06T20:07:13.343Z,5.20
2019-05-06T20:12:40.653Z,6.83
2019-05-06T20:18:05.301Z,5.07
2019-05-06T20:23:30.304Z,6.73
2019-05-06T20:28:54.811Z,9.70
2019-05-06T20:34:19.703Z,6.40
2019-05-06T20:39:44.356Z,6.13
2019-05-06T20:45:09.115Z,8.40
2019-05-06T20:50:33.122Z,7.93
2019-05-06T20:55:56.894Z,10.80
2019-05-06T21:01:21.944Z,8.17
2019-05-06T21:06:46.144Z,8.90
2019-05-06T21:12:11.162Z,8.20
2019-05-06T21:17:35.043Z,10.80
2019-05-06T21:23:02.333Z,7.67
2019-05-06T21:28:26.048Z,8.90
2019-05-06T21:33:52.208Z,11.13
2019-05-06T21:39:16.034Z,7.63
2019-05-06T21:44:40.199Z,9.30
2019-05-06T21:50:05.604Z,7.17
2019-05-06T21:55:29.485Z,9.33
2019-05-06T22:01:02.357Z,7.13
2019-05-06T22:06:28.873Z,7.77
2019-05-06T22:11:53.383Z,9.83
2019-05-06T22:17:17.231Z,9.50
2019-05-06T22:22:42.588Z,9.90
2019-05-06T22:28:07.605Z,10.63
2019-05-06T22:33:32.527Z,10.23
2019-05-06T22:38:57.152Z,12.03
2019-05-06T22:44:22.812Z,8.57
2019-05-06T22:49:46.599Z,11.13
2019-05-06T22:55:12.998Z,11.83
2019-05-06T23:00:39.475Z,9.73
2019-05-06T23:06:03.938Z,12.53
2019-05-06T23:11:28.347Z,11.43
2019-05-06T23:16:52.469Z,13.10
2019-05-06T23:22:16.837Z,11.87
2019-05-06T23:27:43.856Z,9.83
2019-05-06T23:33:06.638Z,10.50
2019-05-06T23:39:07.997Z,10.87
2019-05-06T23:45:08.549Z,10.13
2019-05-06T23:51:08.618Z,13.23
2019-05-06T23:56:46.934Z,8.17
